createdAt,value
2022-08-25T00:00:22.571Z,101018.80
2022-08-25T00:03:05.323Z,101021.96
2022-08-25T00:05:33.404Z,101025.20
2022-08-25T00:08:03.666Z,101020.15
2022-08-25T00:10:35.240Z,101019.00
2022-08-25T00:13:05.100Z,101017.43
2022-08-25T00:15:33.408Z,101022.98
2022-08-25T00:18:02.132Z,101020.98
2022-08-25T00:20:30.909Z,101013.42
2022-08-25T00:22:58.838Z,101023.21
2022-08-25T00:25:27.098Z,101023.23
2022-08-25T00:27:57.102Z,101023.35
2022-08-25T00:30:26.746Z,101018.69
2022-08-25T00:32:57.088Z,101019.59
2022-08-25T00:35:27.219Z,101015.20
2022-08-25T00:37:55.170Z,101024.15
2022-08-25T00:40:26.081Z,101022.81
2022-08-25T00:42:56.131Z,101018.89
2022-08-25T00:45:24.876Z,101012.80
2022-08-25T00:47:52.951Z,101010.53
2022-08-25T00:50:22.654Z,101017.33
2022-08-25T00:52:59.417Z,101020.91
2022-08-25T00:55:30.711Z,101019.08
2022-08-25T00:58:20.113Z,101016.35
2022-08-25T01:00:52.973Z,101013.48
2022-08-25T01:03:23.868Z,101020.09
2022-08-25T01:06:03.162Z,101025.98
2022-08-25T01:08:33.520Z,101025.80
2022-08-25T01:11:08.871Z,101025.95
2022-08-25T01:13:51.084Z,101033.05
2022-08-25T01:16:19.152Z,101035.11
2022-08-25T01:18:54.631Z,101038.63
2022-08-25T01:21:26.479Z,101041.89
2022-08-25T01:23:58.212Z,101047.23
2022-08-25T01:26:31.137Z,101052.26
2022-08-25T01:29:21.083Z,101053.59
2022-08-25T01:31:55.887Z,101056.79
2022-08-25T01:34:27.673Z,101051.11
2022-08-25T01:36:58.550Z,101051.77
2022-08-25T01:39:29.523Z,101050.89
2022-08-25T01:42:04.646Z,101043.47
2022-08-25T01:44:35.870Z,101047.95
2022-08-25T01:47:06.088Z,101051.73
2022-08-25T01:49:35.243Z,101047.85
2022-08-25T01:52:24.840Z,101052.02
2022-08-25T01:54:52.741Z,101048.89
2022-08-25T01:57:20.612Z,101045.86
2022-08-25T01:59:48.616Z,101044.76
2022-08-25T02:02:18.328Z,101055.08
2022-08-25T02:04:46.385Z,101043.83
2022-08-25T02:07:14.447Z,101053.20
2022-08-25T02:09:42.431Z,101052.11
2022-08-25T02:12:11.098Z,101051.57
2022-08-25T02:14:39.043Z,101049.33
2022-08-25T02:17:09.795Z,101050.11
2022-08-25T02:19:38.069Z,101053.32
2022-08-25T02:22:06.882Z,101054.21
2022-08-25T02:24:35.130Z,101052.98
2022-08-25T02:27:04.159Z,101050.73
2022-08-25T02:29:33.737Z,101048.06
2022-08-25T02:32:03.035Z,101041.63
2022-08-25T02:34:31.103Z,101041.40
2022-08-25T02:36:59.048Z,101040.52
2022-08-25T02:39:27.038Z,101035.31
2022-08-25T02:41:55.027Z,101038.05
2022-08-25T02:44:22.887Z,101040.88
2022-08-25T02:46:50.733Z,101043.23
2022-08-25T02:49:18.744Z,101038.63
2022-08-25T02:51:46.616Z,101040.58
2022-08-25T02:54:14.571Z,101037.77
2022-08-25T02:56:43.073Z,101038.40
2022-08-25T02:59:12.254Z,101034.97
2022-08-25T03:01:40.178Z,101031.71
2022-08-25T03:04:08.236Z,101028.48
2022-08-25T03:06:36.098Z,101026.19
2022-08-25T03:09:04.670Z,101030.23
2022-08-25T03:11:33.369Z,101028.00
2022-08-25T03:14:01.292Z,101024.08
2022-08-25T03:16:31.828Z,101026.23
2022-08-25T03:19:00.626Z,101024.08
2022-08-25T03:21:29.736Z,101019.72
2022-08-25T03:23:58.991Z,101018.70
2022-08-25T03:26:45.851Z,101016.73
2022-08-25T03:29:13.956Z,101017.48
2022-08-25T03:31:44.851Z,101014.30
2022-08-25T03:34:18.458Z,101011.22
2022-08-25T03:36:49.989Z,101009.38
2022-08-25T03:39:24.698Z,101008.92
2022-08-25T03:41:53.858Z,101008.23
2022-08-25T03:44:22.490Z,101010.86
2022-08-25T03:46:52.245Z,101013.41
2022-08-25T03:49:23.875Z,101011.02
2022-08-25T03:51:54.821Z,101020.42
2022-08-25T03:54:25.707Z,101023.42
2022-08-25T03:56:53.991Z,101023.28
2022-08-25T03:59:22.186Z,101027.52
2022-08-25T04:01:54.781Z,101026.37
2022-08-25T04:04:24.523Z,101029.59
2022-08-25T04:06:53.034Z,101030.80
2022-08-25T04:09:22.386Z,101030.05
2022-08-25T04:11:53.350Z,101033.70
2022-08-25T04:14:23.451Z,101035.77
2022-08-25T04:16:53.091Z,101035.01
2022-08-25T04:19:22.051Z,101037.77
2022-08-25T04:21:50.064Z,101037.64
2022-08-25T04:24:18.160Z,101037.50
2022-08-25T04:26:50.347Z,101033.85
2022-08-25T04:29:23.551Z,101037.19
2022-08-25T04:31:54.123Z,101041.78
2022-08-25T04:34:30.537Z,101041.45
2022-08-25T04:37:03.395Z,101044.02
2022-08-25T04:39:32.237Z,101046.63
2022-08-25T04:42:01.298Z,101044.13
2022-08-25T04:44:30.838Z,101039.89
2022-08-25T04:47:01.504Z,101040.30
2022-08-25T04:49:29.707Z,101039.02
2022-08-25T04:51:57.854Z,101043.30
2022-08-25T04:54:26.227Z,101041.70
2022-08-25T04:56:58.088Z,101037.91
2022-08-25T04:59:29.466Z,101038.67
2022-08-25T05:02:03.010Z,101030.63
2022-08-25T05:04:32.733Z,101037.42
2022-08-25T05:07:01.448Z,101037.83
2022-08-25T05:09:32.294Z,101038.27
2022-08-25T05:12:03.227Z,101037.08
2022-08-25T05:14:32.569Z,101034.38
2022-08-25T05:17:01.281Z,101036.33
2022-08-25T05:19:29.511Z,101039.99
2022-08-25T05:21:57.738Z,101038.94
2022-08-25T05:24:26.877Z,101040.55
2022-08-25T05:26:55.626Z,101038.29
2022-08-25T05:29:23.737Z,101039.45
2022-08-25T05:31:51.871Z,101045.66
2022-08-25T05:34:20.584Z,101039.48
2022-08-25T05:36:49.329Z,101038.25
2022-08-25T05:39:17.418Z,101030.24
2022-08-25T05:41:45.316Z,101035.41
2022-08-25T05:44:15.917Z,101029.65
2022-08-25T05:46:45.763Z,101031.05
2022-08-25T05:49:13.550Z,101029.98
2022-08-25T05:51:41.391Z,101033.95
2022-08-25T05:54:10.364Z,101031.98
2022-08-25T05:56:38.255Z,101032.33
2022-08-25T05:59:09.314Z,101037.95
2022-08-25T06:01:56.513Z,101038.79
2022-08-25T06:04:24.699Z,101035.67
2022-08-25T06:06:54.812Z,101031.21
2022-08-25T06:09:24.390Z,101039.38
2022-08-25T06:11:55.175Z,101042.89
2022-08-25T06:14:24.463Z,101044.98
2022-08-25T06:16:53.269Z,101043.11
2022-08-25T06:19:23.199Z,101039.20
2022-08-25T06:21:55.775Z,101041.96
2022-08-25T06:24:26.520Z,101038.06
2022-08-25T06:26:55.300Z,101043.88
2022-08-25T06:29:24.244Z,101040.48
2022-08-25T06:31:52.752Z,101042.43
2022-08-25T06:34:23.957Z,101045.63
2022-08-25T06:36:53.154Z,101044.92
2022-08-25T06:39:21.945Z,101047.81
2022-08-25T06:41:54.936Z,101044.03
2022-08-25T06:44:24.815Z,101041.63
2022-08-25T06:46:52.762Z,101043.88
2022-08-25T06:49:21.519Z,101040.42
2022-08-25T06:51:50.534Z,101041.61
2022-08-25T06:54:18.372Z,101040.84
2022-08-25T06:56:46.978Z,101044.15
2022-08-25T06:59:17.923Z,101043.80
2022-08-25T07:01:45.966Z,101041.86
2022-08-25T07:04:18.082Z,101043.59
2022-08-25T07:06:46.824Z,101040.65
2022-08-25T07:09:15.149Z,101041.83
2022-08-25T07:11:45.690Z,101042.84
2022-08-25T07:14:16.972Z,101041.77
2022-08-25T07:16:49.615Z,101043.45
2022-08-25T07:19:22.101Z,101044.46
2022-08-25T07:21:53.104Z,101044.73
2022-08-25T07:24:23.041Z,101045.89
2022-08-25T07:26:51.879Z,101047.39
2022-08-25T07:29:32.227Z,101044.63
2022-08-25T07:32:03.926Z,101042.67
2022-08-25T07:34:52.397Z,101045.04
2022-08-25T07:37:47.834Z,101047.34
2022-08-25T07:40:23.417Z,101046.33
2022-08-25T07:42:56.329Z,101042.77
2022-08-25T07:45:30.634Z,101047.18
2022-08-25T07:48:07.388Z,101042.82
2022-08-25T07:50:38.939Z,101049.75
2022-08-25T07:53:07.238Z,101050.73
2022-08-25T07:55:36.599Z,101048.73
2022-08-25T07:58:07.691Z,101054.39
2022-08-25T08:00:37.679Z,101054.86
2022-08-25T08:03:12.970Z,101054.61
2022-08-25T08:05:48.109Z,101049.55
2022-08-25T08:08:17.199Z,101052.60
2022-08-25T08:11:04.132Z,101047.29
2022-08-25T08:13:38.058Z,101049.16
2022-08-25T08:16:13.242Z,101043.71
2022-08-25T08:18:43.686Z,101041.36
2022-08-25T08:21:20.011Z,101040.54
2022-08-25T08:23:49.677Z,101041.05
2022-08-25T08:26:18.237Z,101035.14
2022-08-25T08:28:51.918Z,101037.61
2022-08-25T08:31:22.584Z,101036.89
2022-08-25T08:33:51.214Z,101034.15
2022-08-25T08:36:19.824Z,101034.75
2022-08-25T08:38:49.364Z,101037.70
2022-08-25T08:42:19.502Z,101039.91
2022-08-25T08:45:15.142Z,101040.11
2022-08-25T08:48:16.261Z,101037.22
2022-08-25T08:51:03.002Z,101039.16
2022-08-25T08:53:57.264Z,101039.18
2022-08-25T08:56:31.871Z,101039.89
2022-08-25T08:59:07.575Z,101039.38
2022-08-25T09:01:56.628Z,101031.17
2022-08-25T09:04:41.748Z,101028.01
2022-08-25T09:07:21.716Z,101028.02
2022-08-25T09:09:52.336Z,101025.95
2022-08-25T09:12:41.311Z,101022.59
2022-08-25T09:16:08.292Z,101020.02
2022-08-25T09:19:23.571Z,101019.92
2022-08-25T09:22:01.389Z,101014.95
2022-08-25T09:25:08.853Z,101012.23
2022-08-25T09:28:39.812Z,101008.61
2022-08-25T09:31:29.441Z,101016.20
2022-08-25T09:34:04.536Z,101011.27
2022-08-25T09:36:37.512Z,101005.88
2022-08-25T09:39:07.989Z,101005.31
2022-08-25T09:42:01.257Z,101003.59
2022-08-25T09:44:38.839Z,101006.44
2022-08-25T09:47:15.296Z,101002.75
2022-08-25T09:49:49.185Z,101000.06
2022-08-25T09:52:33.010Z,100992.92
2022-08-25T09:55:29.111Z,100992.64
2022-08-25T09:58:00.702Z,100989.95
2022-08-25T10:00:35.105Z,100990.33
2022-08-25T10:03:24.493Z,100987.80
2022-08-25T10:05:58.882Z,100982.13
2022-08-25T10:08:44.977Z,100969.05
2022-08-25T10:11:42.959Z,100971.88
2022-08-25T10:14:44.469Z,100968.35
2022-08-25T10:17:29.532Z,100970.80
2022-08-25T10:20:09.785Z,100968.77
2022-08-25T10:22:40.476Z,100961.88
2022-08-25T10:25:13.229Z,100957.59
2022-08-25T10:28:14.740Z,100955.83
2022-08-25T10:31:22.066Z,100947.17
2022-08-25T10:34:45.998Z,100941.64
2022-08-25T10:38:05.085Z,100944.70
2022-08-25T10:40:53.255Z,100939.55
2022-08-25T10:43:50.025Z,100936.30
2022-08-25T10:47:20.679Z,100935.48
2022-08-25T10:49:56.562Z,100930.87
2022-08-25T10:52:55.903Z,100934.60
2022-08-25T10:55:52.398Z,100933.08
2022-08-25T10:58:45.358Z,100929.08
2022-08-25T11:01:43.745Z,100925.61
2022-08-25T11:04:43.467Z,100918.96
2022-08-25T11:07:25.519Z,100907.50
2022-08-25T11:10:00.771Z,100903.23
2022-08-25T11:12:44.988Z,100904.61
2022-08-25T11:15:29.478Z,100902.10
2022-08-25T11:18:14.006Z,100903.21
2022-08-25T11:21:02.547Z,100900.01
2022-08-25T11:23:39.786Z,100898.13
2022-08-25T11:26:12.462Z,100892.71
2022-08-25T11:29:01.101Z,100892.41
2022-08-25T11:31:29.873Z,100885.60
2022-08-25T11:33:58.985Z,100884.92
2022-08-25T11:36:37.541Z,100886.03
2022-08-25T11:39:53.400Z,100888.40
2022-08-25T11:43:01.626Z,100886.95
2022-08-25T11:46:08.358Z,100883.06
2022-08-25T11:49:08.100Z,100883.79
2022-08-25T11:51:45.089Z,100879.91
2022-08-25T11:54:28.752Z,100885.56
2022-08-25T11:57:17.475Z,100879.31
2022-08-25T11:59:52.418Z,100872.02
2022-08-25T12:02:45.898Z,100871.95
2022-08-25T12:05:20.084Z,100870.44
2022-08-25T12:08:07.039Z,100867.77
2022-08-25T12:11:11.254Z,100862.70
2022-08-25T12:13:51.030Z,100856.64
2022-08-25T12:16:34.912Z,100856.10
2022-08-25T12:19:34.115Z,100853.05
2022-08-25T12:22:03.425Z,100848.87
2022-08-25T12:24:47.712Z,100845.85
2022-08-25T12:27:26.796Z,100844.05
2022-08-25T12:30:15.961Z,100846.88
2022-08-25T12:33:15.689Z,100849.50
2022-08-25T12:36:03.696Z,100847.41
2022-08-25T12:38:47.305Z,100844.02
2022-08-25T12:41:33.779Z,100848.15
2022-08-25T12:44:44.466Z,100848.45
2022-08-25T12:47:32.335Z,100843.88
2022-08-25T12:50:28.259Z,100844.06
2022-08-25T12:53:08.860Z,100841.98
2022-08-25T12:55:42.137Z,100841.49
2022-08-25T12:58:11.690Z,100835.68
2022-08-25T13:00:56.820Z,100833.89
2022-08-25T13:04:10.265Z,100836.49
2022-08-25T13:07:23.727Z,100834.09
2022-08-25T13:10:55.907Z,100840.74
2022-08-25T13:14:01.091Z,100832.85
2022-08-25T13:16:30.427Z,100828.63
2022-08-25T13:19:03.840Z,100823.00
2022-08-25T13:21:40.563Z,100821.63
2022-08-25T13:24:40.171Z,100819.16
2022-08-25T13:27:22.682Z,100821.29
2022-08-25T13:29:58.322Z,100820.09
2022-08-25T13:32:36.621Z,100813.71
2022-08-25T13:35:20.565Z,100816.96
2022-08-25T13:37:50.472Z,100815.96
2022-08-25T13:40:27.003Z,100817.52
2022-08-25T13:43:01.123Z,100815.30
2022-08-25T13:45:41.264Z,100814.20
2022-08-25T13:48:22.482Z,100814.23
2022-08-25T13:50:52.702Z,100812.08
2022-08-25T13:53:30.505Z,100811.22
2022-08-25T13:56:02.987Z,100805.08
2022-08-25T13:58:45.207Z,100805.04
2022-08-25T14:01:48.499Z,100798.38
2022-08-25T14:04:51.104Z,100798.23
2022-08-25T14:07:20.816Z,100799.05
2022-08-25T14:10:00.146Z,100790.05
2022-08-25T14:12:45.405Z,100787.37
2022-08-25T14:15:29.644Z,100787.27
2022-08-25T14:18:14.002Z,100792.79
2022-08-25T14:20:50.745Z,100790.47
2022-08-25T14:23:26.086Z,100791.17
2022-08-25T14:25:57.782Z,100788.73
2022-08-25T14:28:30.298Z,100782.52
2022-08-25T14:31:08.478Z,100779.36
2022-08-25T14:33:59.499Z,100779.72
2022-08-25T14:36:30.717Z,100777.42
2022-08-25T14:38:59.548Z,100772.86
2022-08-25T14:41:28.487Z,100769.17
2022-08-25T14:43:56.334Z,100770.43
2022-08-25T14:46:28.675Z,100771.38
2022-08-25T14:49:00.258Z,100767.86
2022-08-25T14:51:32.019Z,100768.44
2022-08-25T14:54:04.249Z,100765.19
2022-08-25T14:56:33.038Z,100765.49
2022-08-25T14:59:02.131Z,100763.30
2022-08-25T15:01:34.017Z,100754.76
2022-08-25T15:04:08.032Z,100753.65
2022-08-25T15:06:37.411Z,100751.91
2022-08-25T15:09:12.787Z,100748.11
2022-08-25T15:11:51.019Z,100739.11
2022-08-25T15:14:28.554Z,100739.68
2022-08-25T15:17:01.794Z,100735.20
2022-08-25T15:19:29.891Z,100733.23
2022-08-25T15:21:59.347Z,100732.05
2022-08-25T15:24:28.690Z,100727.12
2022-08-25T15:27:00.400Z,100727.38
2022-08-25T15:29:31.044Z,100730.16
2022-08-25T15:32:01.936Z,100727.31
2022-08-25T15:34:30.874Z,100726.20
2022-08-25T15:37:05.984Z,100727.39
2022-08-25T15:39:35.179Z,100731.09
2022-08-25T15:42:03.975Z,100724.62
2022-08-25T15:44:33.435Z,100726.36
2022-08-25T15:47:03.919Z,100716.95
2022-08-25T15:49:33.270Z,100714.46
2022-08-25T15:52:01.777Z,100710.73
2022-08-25T15:54:31.249Z,100707.05
2022-08-25T15:56:59.824Z,100704.82
2022-08-25T15:59:29.086Z,100702.61
2022-08-25T16:01:57.429Z,100698.91
2022-08-25T16:04:28.911Z,100702.23
2022-08-25T16:06:57.041Z,100700.13
2022-08-25T16:09:26.726Z,100698.96
2022-08-25T16:11:55.877Z,100697.98
2022-08-25T16:14:27.730Z,100694.38
2022-08-25T16:16:58.523Z,100693.66
2022-08-25T16:19:29.428Z,100690.11
2022-08-25T16:21:59.154Z,100692.38
2022-08-25T16:24:28.200Z,100691.33
2022-08-25T16:27:11.650Z,100689.67
2022-08-25T16:29:43.844Z,100685.20
2022-08-25T16:32:15.127Z,100687.77
2022-08-25T16:34:44.291Z,100682.99
2022-08-25T16:37:13.515Z,100684.91
2022-08-25T16:39:45.431Z,100685.73
2022-08-25T16:42:14.329Z,100685.78
2022-08-25T16:44:42.430Z,100686.61
2022-08-25T16:47:14.105Z,100686.81
2022-08-25T16:49:42.765Z,100684.77
2022-08-25T16:52:31.135Z,100685.56
2022-08-25T16:55:15.163Z,100683.44
2022-08-25T16:57:51.760Z,100682.41
2022-08-25T17:00:28.167Z,100683.61
2022-08-25T17:02:59.583Z,100682.09
2022-08-25T17:05:33.371Z,100678.81
2022-08-25T17:08:20.636Z,100680.51
2022-08-25T17:10:48.882Z,100679.94
2022-08-25T17:13:17.133Z,100679.15
2022-08-25T17:15:48.987Z,100676.05
2022-08-25T17:18:20.576Z,100675.41
2022-08-25T17:20:48.749Z,100671.21
2022-08-25T17:23:21.056Z,100672.52
2022-08-25T17:25:51.974Z,100672.52
2022-08-25T17:28:20.059Z,100674.23
2022-08-25T17:30:49.657Z,100672.96
2022-08-25T17:33:18.227Z,100678.54
2022-08-25T17:35:54.871Z,100673.85
2022-08-25T17:38:26.241Z,100673.37
2022-08-25T17:41:01.380Z,100674.54
2022-08-25T17:43:31.258Z,100679.64
2022-08-25T17:46:00.743Z,100679.59
2022-08-25T17:48:33.066Z,100678.19
2022-08-25T17:51:02.674Z,100675.52
2022-08-25T17:53:30.822Z,100675.50
2022-08-25T17:56:09.585Z,100677.58
2022-08-25T17:58:39.408Z,100674.45
2022-08-25T18:01:20.013Z,100674.84
2022-08-25T18:03:51.693Z,100678.64
2022-08-25T18:06:23.111Z,100680.52
2022-08-25T18:08:57.540Z,100678.34
2022-08-25T18:11:30.107Z,100680.75
2022-08-25T18:13:59.668Z,100680.14
2022-08-25T18:16:29.384Z,100681.67
2022-08-25T18:18:59.249Z,100682.02
2022-08-25T18:21:31.013Z,100685.27
2022-08-25T18:24:01.894Z,100680.91
2022-08-25T18:26:30.536Z,100685.39
2022-08-25T18:29:00.674Z,100685.35
2022-08-25T18:31:29.488Z,100685.38
2022-08-25T18:34:02.146Z,100685.85
2022-08-25T18:36:30.769Z,100686.95
2022-08-25T18:39:18.047Z,100691.46
2022-08-25T18:41:48.212Z,100691.66
2022-08-25T18:44:17.060Z,100696.10
2022-08-25T18:46:46.030Z,100698.58
2022-08-25T18:49:15.643Z,100702.28
2022-08-25T18:51:48.172Z,100704.55
2022-08-25T18:54:23.100Z,100704.94
2022-08-25T18:56:56.203Z,100705.21
2022-08-25T18:59:24.862Z,100708.97
2022-08-25T19:01:54.244Z,100705.56
2022-08-25T19:04:28.516Z,100705.88
2022-08-25T19:07:02.117Z,100709.30
2022-08-25T19:09:36.482Z,100707.83
2022-08-25T19:12:05.809Z,100704.77
2022-08-25T19:14:34.688Z,100705.13
2022-08-25T19:17:03.919Z,100710.40
2022-08-25T19:19:32.574Z,100708.64
2022-08-25T19:22:01.450Z,100712.38
2022-08-25T19:24:35.493Z,100711.01
2022-08-25T19:27:12.865Z,100708.67
2022-08-25T19:29:42.053Z,100705.50
2022-08-25T19:32:12.699Z,100703.08
2022-08-25T19:34:47.444Z,100700.67
2022-08-25T19:37:27.010Z,100695.19
2022-08-25T19:39:57.425Z,100694.10
2022-08-25T19:42:35.162Z,100694.07
2022-08-25T19:45:10.966Z,100695.17
2022-08-25T19:47:44.402Z,100692.25
2022-08-25T19:50:16.717Z,100690.53
2022-08-25T19:52:47.061Z,100695.08
2022-08-25T19:55:22.666Z,100693.77
2022-08-25T19:57:54.702Z,100694.67
2022-08-25T20:00:29.430Z,100702.02
2022-08-25T20:03:01.684Z,100698.77
2022-08-25T20:05:31.223Z,100697.40
2022-08-25T20:07:59.866Z,100696.80
2022-08-25T20:10:31.867Z,100698.17
2022-08-25T20:13:05.328Z,100697.65
2022-08-25T20:15:39.023Z,100696.43
2022-08-25T20:18:08.523Z,100698.21
2022-08-25T20:20:36.553Z,100699.38
2022-08-25T20:23:24.371Z,100701.84
2022-08-25T20:25:52.886Z,100698.88
2022-08-25T20:28:20.782Z,100703.86
2022-08-25T20:30:48.697Z,100707.82
2022-08-25T20:33:22.687Z,100700.05
2022-08-25T20:35:53.158Z,100696.48
2022-08-25T20:38:21.442Z,100692.48
2022-08-25T20:40:49.300Z,100692.91
2022-08-25T20:43:17.824Z,100692.54
2022-08-25T20:45:45.879Z,100698.27
2022-08-25T20:48:13.977Z,100697.94
2022-08-25T20:50:41.947Z,100699.38
2022-08-25T20:53:10.270Z,100698.21
2022-08-25T20:55:42.705Z,100702.38
2022-08-25T20:58:12.681Z,100700.84
2022-08-25T21:00:44.776Z,100699.48
2022-08-25T21:03:12.796Z,100700.36
2022-08-25T21:05:43.013Z,100699.77
2022-08-25T21:08:11.042Z,100696.73
2022-08-25T21:10:40.850Z,100701.55
2022-08-25T21:13:08.766Z,100697.29
2022-08-25T21:15:40.316Z,100699.09
2022-08-25T21:18:08.477Z,100699.98
2022-08-25T21:20:39.969Z,100701.67
2022-08-25T21:23:08.360Z,100701.34
2022-08-25T21:25:41.881Z,100699.18
2022-08-25T21:28:09.737Z,100696.66
2022-08-25T21:30:44.707Z,100697.68
2022-08-25T21:33:15.585Z,100698.30
2022-08-25T21:35:43.962Z,100700.70
2022-08-25T21:38:11.813Z,100699.93
2022-08-25T21:40:39.753Z,100698.29
2022-08-25T21:43:12.902Z,100693.23
2022-08-25T21:45:46.652Z,100689.33
2022-08-25T21:48:16.361Z,100692.61
2022-08-25T21:50:44.217Z,100689.43
2022-08-25T21:53:12.984Z,100693.10
2022-08-25T21:55:44.097Z,100697.23
2022-08-25T21:58:11.940Z,100695.69
2022-08-25T22:00:39.952Z,100691.45
2022-08-25T22:03:07.967Z,100691.81
2022-08-25T22:05:39.450Z,100688.95
2022-08-25T22:08:08.497Z,100686.05
2022-08-25T22:10:44.560Z,100686.81
2022-08-25T22:13:12.719Z,100682.26
2022-08-25T22:15:40.575Z,100682.10
2022-08-25T22:18:08.791Z,100680.41
2022-08-25T22:20:36.838Z,100683.14
2022-08-25T22:23:09.861Z,100681.89
2022-08-25T22:25:48.411Z,100679.98
2022-08-25T22:28:16.408Z,100678.42
2022-08-25T22:30:44.328Z,100678.48
2022-08-25T22:33:13.071Z,100676.57
2022-08-25T22:35:41.416Z,100671.52
2022-08-25T22:38:12.597Z,100671.86
2022-08-25T22:40:41.093Z,100666.86
2022-08-25T22:43:11.001Z,100667.02
2022-08-25T22:45:39.199Z,100660.94
2022-08-25T22:48:07.494Z,100660.81
2022-08-25T22:50:37.296Z,100660.70
2022-08-25T22:53:05.182Z,100657.27
2022-08-25T22:55:33.059Z,100664.53
2022-08-25T22:58:00.940Z,100660.09
2022-08-25T23:00:28.778Z,100659.55
2022-08-25T23:02:56.932Z,100654.79
2022-08-25T23:05:24.819Z,100651.94
2022-08-25T23:07:52.721Z,100654.39
2022-08-25T23:10:22.759Z,100656.40
2022-08-25T23:12:51.555Z,100657.59
2022-08-25T23:15:19.395Z,100653.70
2022-08-25T23:17:47.299Z,100651.08
2022-08-25T23:20:35.266Z,100650.89
2022-08-25T23:23:05.686Z,100648.80
2022-08-25T23:25:40.444Z,100645.56
2022-08-25T23:28:08.387Z,100642.84
2022-08-25T23:30:39.000Z,100641.48
2022-08-25T23:33:07.059Z,100641.40
2022-08-25T23:35:35.090Z,100640.17
2022-08-25T23:38:03.287Z,100636.16
2022-08-25T23:40:32.296Z,100635.70
2022-08-25T23:43:00.934Z,100631.91
2022-08-25T23:45:29.923Z,100630.34
2022-08-25T23:47:58.154Z,100628.09
2022-08-25T23:50:26.294Z,100625.02
2022-08-25T23:52:54.104Z,100619.24
2022-08-25T23:55:22.446Z,100618.30
2022-08-25T23:57:51.542Z,100616.55
